Terminal Aerodrome Forecast
Issued by NWS Mobile, AL

Home | Current Version | Previous Version | Text Only | Print | Product List | Glossary On
Versions: 1 2 3 4 5 6 7 8 9 10 11 12 13 14 15 16 17 18 19 20 21 22 23 24 25 26 27 28 29 30 31 32 33 34 35 36 37 38 39 40 41 42 43 44 45
000
FTUS44 KMOB 041737
TAFPNS
TAF
KPNS 041737Z 0418/0518 17008KT 5SM BR OVC004
      TEMPO 0418/0422 SCT004 BKN020
     FM050000 16009KT 1SM BR OVC002
     FM050300 18006KT 1/4SM FG OVC001
     FM051600 35016G26KT 2SM -RA BR OVC004=

USA.gov is the U.S. government's official web portal to all federal, state and local government web resources and services.